Terminal Aerodrome Forecast
Issued by NWS St Louis, MO

Home | Current Version | Previous Version | Graphics & Text | Print | Product List | Glossary On
Versions: 1 2 3 4 5 6 7 8 9 10 11 12 13 14 15 16 17 18 19 20 21 22 23 24 25 26 27 28 29
000
FTUS43 KLSX 200900 AAA
TAFSTL
TAF AMD
KSTL 200909Z 2009/2112 08010KT P6SM BKN080 OVC150
     FM201200 07012KT P6SM VCSH BKN050 OVC100
     FM201500 07010KT 5SM -RA BR OVC030
     FM201900 04008KT 2SM -DZ BR OVC009
     FM210000 01007KT 5SM BR OVC015
     FM210300 34006KT 6SM BR BKN025=

USA.gov is the U.S. government's official web portal to all federal, state and local government web resources and services.